Tropical Cyclones
[Index]
Main Index Home Page Stock Weather Photos Extreme Storms Discussion Storm News and Storm Chasing Reports Tropical Cyclones / Hurricanes / Typhoons Weather Data and Links Wild Fires / Bushfires Weather Observation Techniques Weather Picture Catalogue Tornado Pictures and Reports Stock Video Footage and DVDs for sale
Season 2003-2004 Tropical Cyclone MONTY Track Map
Season 2003-2004 Summaries: [BoM-AU] [JTWC-AU] [JTWC-SIO] [JTWC-SPAC] [JTWC-SH]
<<- Previous TC | JTWC 2003-2004 Season | Next TC ->>

click for intensity scale information  Lat/long Grid: Show Hide

 Date Labels: Show Hide

Joint Typhoon Warning Centre Cyclone Data

Name: MONTY

26 Feb 2004 18:00 UTC to 02 Mar 2004 12:00 UTC

    date/time    lat    long     hPa   cat  kts
2004-02-26 18   19.7   120.9    1006         15          
2004-02-27 00   19.5   120.4    1000         30          
2004-02-27 06   19.2   120.0     997         35          
2004-02-27 12   19.3   119.5     997         35          
2004-02-27 18   19.3   119.0     987    1    50          
2004-02-28 00   19.3   118.5     976    2    65          
2004-02-28 00   19.3   118.5     976    2    65          
2004-02-28 06   19.2   117.8     972    2    70          
2004-02-28 06   19.2   117.8     972    2    70          
2004-02-28 12   19.2   117.2     972    2    70          
2004-02-28 12   19.2   117.2     972    2    70          
2004-02-28 18   19.2   116.7     967    3    75          
2004-02-28 18   19.2   116.7     967    3    75          
2004-02-29 00   19.3   116.2     954    3    90          
2004-02-29 00   19.3   116.2     954    3    90          
2004-02-29 06   19.5   115.8     938    4   105          
2004-02-29 06   19.5   115.8     938    4   105          
2004-02-29 06   19.5   115.8     938    4   105          
2004-02-29 12   19.8   115.4     933    4   110          
2004-02-29 12   19.8   115.4     933    4   110          
2004-02-29 12   19.8   115.4     933    4   110          
2004-02-29 18   20.1   115.1     938    4   105          
2004-02-29 18   20.1   115.1     938    4   105          
2004-02-29 18   20.1   115.1     938    4   105          
2004-03-01 00   20.5   115.2     938    4   105          
2004-03-01 00   20.5   115.2     938    4   105          
2004-03-01 00   20.5   115.2     938    4   105          
2004-03-01 06   20.9   115.3     938    4   105          
2004-03-01 06   20.9   115.3     938    4   105          
2004-03-01 06   20.9   115.3     938    4   105          
2004-03-01 12   21.3   115.6     954    3    90          
2004-03-01 12   21.3   115.6     954    3    90          
2004-03-01 18   21.6   115.8     967    3    75          
2004-03-01 18   21.6   115.8     967    3    75          
2004-03-02 00   21.9   116.2     980    2    60          
2004-03-02 00   21.9   116.2     980    2    60          
2004-03-02 06   22.4   116.5     991    1    45          
2004-03-02 12   23.0   116.9     997         35          
Winds are 1-min average.

Tropical cyclone tracks developed by Michael Bath using data from the Joint Typhoon Warning Centre Best Tracks and Google Maps.


[Australian Severe Weather index] [Copyright Notice] [Email Contacts] [Search This Site] [Privacy Policy]
Document: tropical_cyclone_monty.htm Updated: 28 June 2017